createdAt,value
2019-03-31T08:22:09.668Z,101709.00
2019-03-31T08:24:45.801Z,101708.00
2019-03-31T08:27:16.816Z,101716.00
2019-03-31T08:29:55.408Z,101723.00
2019-03-31T08:32:19.274Z,101726.00
2019-03-31T08:34:49.676Z,101728.00
2019-03-31T08:37:20.056Z,101741.00
2019-03-31T08:39:50.452Z,101728.00
2019-03-31T08:42:20.821Z,101730.00
2019-03-31T08:44:51.220Z,101718.00
2019-03-31T08:47:21.757Z,101724.00
2019-03-31T08:49:52.149Z,101717.00
2019-03-31T08:52:22.528Z,101726.00
2019-03-31T08:54:52.949Z,101740.00
2019-03-31T08:57:23.324Z,101735.00
2019-03-31T08:59:53.719Z,101749.00
2019-03-31T09:02:25.722Z,101757.00
2019-03-31T09:04:56.126Z,101761.00
2019-03-31T09:07:26.509Z,101759.00
2019-03-31T09:09:56.900Z,101762.00
2019-03-31T09:12:27.273Z,101765.00
2019-03-31T09:14:57.662Z,101769.00
2019-03-31T09:17:28.035Z,101762.00
2019-03-31T09:19:58.440Z,101765.00
2019-03-31T09:22:28.806Z,101771.00
2019-03-31T09:24:59.196Z,101770.00
2019-03-31T09:27:29.563Z,101770.00
2019-03-31T09:29:59.950Z,101781.00
2019-03-31T09:32:30.317Z,101769.00
2019-03-31T09:35:00.713Z,101786.00
2019-03-31T09:37:31.080Z,101789.00
2019-03-31T09:40:01.468Z,101794.00
2019-03-31T09:42:31.831Z,101794.00
2019-03-31T09:45:02.222Z,101795.00
2019-03-31T09:47:32.586Z,101797.00
2019-03-31T09:50:03.353Z,101792.00
2019-03-31T09:52:33.711Z,101790.00
2019-03-31T09:55:06.647Z,101794.00
2019-03-31T09:57:37.030Z,101788.00
2019-03-31T10:00:17.632Z,101789.00
2019-03-31T10:02:48.008Z,101788.00
2019-03-31T10:05:18.839Z,101792.00
2019-03-31T10:07:49.203Z,101786.00
2019-03-31T10:10:33.277Z,101788.00
2019-03-31T10:13:03.641Z,101791.00
2019-03-31T10:15:34.051Z,101797.00
2019-03-31T10:18:04.402Z,101788.00
2019-03-31T10:20:35.217Z,101796.00
2019-03-31T10:23:06.027Z,101801.00
2019-03-31T10:25:40.497Z,101801.00
2019-03-31T10:28:10.830Z,101796.00
2019-03-31T10:30:42.112Z,101803.00
2019-03-31T10:33:12.476Z,101773.00
2019-03-31T10:35:42.939Z,101798.00
2019-03-31T10:38:13.314Z,101792.00
2019-03-31T10:40:44.099Z,101796.00
2019-03-31T10:43:14.466Z,101777.00
2019-03-31T10:45:44.863Z,101771.00
2019-03-31T10:48:20.967Z,101768.00
2019-03-31T10:50:47.473Z,101780.00
2019-03-31T10:53:18.058Z,101801.00
2019-03-31T10:55:48.450Z,101800.00
2019-03-31T10:58:18.992Z,101808.00
2019-03-31T11:00:49.384Z,101807.00
2019-03-31T11:03:20.086Z,101816.00
2019-03-31T11:05:50.474Z,101812.00
2019-03-31T11:08:20.829Z,101819.00
2019-03-31T11:10:51.215Z,101812.00
2019-03-31T11:13:21.661Z,101775.00
2019-03-31T11:15:52.053Z,101772.00
2019-03-31T11:18:22.536Z,101799.00
2019-03-31T11:20:53.123Z,101801.00
2019-03-31T11:23:25.403Z,101809.00
2019-03-31T11:25:56.162Z,101808.00
2019-03-31T11:28:26.532Z,101808.00
2019-03-31T11:30:57.256Z,101803.00
2019-03-31T11:33:27.694Z,101806.00
2019-03-31T11:35:58.185Z,101803.00
2019-03-31T11:38:28.642Z,101806.00
2019-03-31T11:40:59.025Z,101813.00
2019-03-31T11:43:29.403Z,101812.00
2019-03-31T11:45:59.793Z,101781.00
2019-03-31T11:48:30.154Z,101780.00
2019-03-31T11:51:00.619Z,101777.00
2019-03-31T11:53:31.014Z,101784.00
2019-03-31T11:56:01.390Z,101789.00
2019-03-31T11:58:35.866Z,101778.00
2019-03-31T12:01:06.210Z,101811.00
2019-03-31T12:03:36.671Z,101781.00
2019-03-31T12:06:11.383Z,101779.00
2019-03-31T12:08:41.971Z,101800.00
2019-03-31T12:11:12.338Z,101807.00
2019-03-31T12:13:42.728Z,101824.00
2019-03-31T12:16:13.112Z,101806.00
2019-03-31T12:18:43.489Z,101828.00
2019-03-31T12:21:13.851Z,101840.00
2019-03-31T12:23:44.226Z,101835.00
2019-03-31T12:26:14.584Z,101808.00
2019-03-31T12:28:44.974Z,101806.00
2019-03-31T12:31:27.928Z,101823.00
2019-03-31T12:33:59.373Z,101807.00
2019-03-31T12:36:29.936Z,101804.00
2019-03-31T12:39:00.348Z,101809.00
2019-03-31T12:41:30.865Z,101804.00
2019-03-31T12:44:01.240Z,101800.00
2019-03-31T12:46:31.600Z,101812.00
2019-03-31T12:49:02.318Z,101818.00
2019-03-31T12:51:32.669Z,101822.00
2019-03-31T12:54:03.060Z,101823.00
2019-03-31T12:56:33.414Z,101827.00
2019-03-31T12:59:04.050Z,101823.00
2019-03-31T13:01:34.406Z,101815.00
2019-03-31T13:04:05.051Z,101814.00
2019-03-31T13:06:35.505Z,101827.00
2019-03-31T13:09:08.522Z,101823.00
2019-03-31T13:11:40.420Z,101813.00
2019-03-31T13:14:10.926Z,101814.00
2019-03-31T13:16:41.277Z,101817.00
2019-03-31T13:19:11.722Z,101819.00
2019-03-31T13:21:42.060Z,101813.00
2019-03-31T13:24:12.620Z,101813.00
2019-03-31T13:26:43.081Z,101807.00
2019-03-31T13:29:13.515Z,101813.00
2019-03-31T13:31:43.884Z,101818.00
2019-03-31T13:34:15.316Z,101831.00
2019-03-31T13:36:45.653Z,101825.00
2019-03-31T13:39:16.135Z,101824.00
2019-03-31T13:41:47.192Z,101818.00
2019-03-31T13:44:18.078Z,101817.00
2019-03-31T13:46:48.470Z,101809.00
2019-03-31T13:49:18.867Z,101807.00
2019-03-31T13:51:49.219Z,101809.00
2019-03-31T13:54:19.604Z,101809.00
2019-03-31T13:56:50.668Z,101799.00
2019-03-31T13:59:21.232Z,101804.00
2019-03-31T14:01:51.599Z,101808.00
2019-03-31T14:04:21.980Z,101804.00
2019-03-31T14:06:52.334Z,101812.00
2019-03-31T14:09:22.721Z,101810.00
2019-03-31T14:11:53.133Z,101808.00
2019-03-31T14:14:23.528Z,101816.00
2019-03-31T14:16:53.888Z,101817.00
2019-03-31T14:19:24.332Z,101821.00
2019-03-31T14:21:54.748Z,101816.00
2019-03-31T14:24:26.970Z,101819.00
2019-03-31T14:26:57.187Z,101816.00
2019-03-31T14:29:27.569Z,101818.00
2019-03-31T14:31:57.923Z,101814.00
2019-03-31T14:34:28.338Z,101816.00
2019-03-31T14:36:58.699Z,101821.00
2019-03-31T14:39:30.150Z,101819.00
2019-03-31T14:42:00.511Z,101824.00
2019-03-31T14:44:30.905Z,101812.00
2019-03-31T14:47:01.255Z,101821.00
2019-03-31T14:49:31.648Z,101821.00
2019-03-31T14:52:02.012Z,101819.00
2019-03-31T14:54:32.394Z,101822.00
2019-03-31T14:57:05.777Z,101816.00
2019-03-31T14:59:34.846Z,101823.00
2019-03-31T15:02:05.199Z,101823.00
2019-03-31T15:04:35.580Z,101825.00
2019-03-31T15:07:05.949Z,101820.00
2019-03-31T15:09:36.327Z,101820.00
2019-03-31T15:12:06.695Z,101816.00
2019-03-31T15:14:37.085Z,101812.00
2019-03-31T15:17:07.440Z,101833.00
2019-03-31T15:19:37.820Z,101824.00
2019-03-31T15:22:08.180Z,101817.00
2019-03-31T15:24:38.581Z,101830.00
2019-03-31T15:27:08.926Z,101825.00
2019-03-31T15:29:39.320Z,101830.00
2019-03-31T15:32:09.682Z,101825.00
2019-03-31T15:34:40.062Z,101830.00
2019-03-31T15:37:10.424Z,101833.00
2019-03-31T15:39:40.813Z,101833.00
2019-03-31T15:42:11.178Z,101830.00
2019-03-31T15:44:41.566Z,101831.00
2019-03-31T15:47:11.962Z,101844.00
2019-03-31T15:49:42.326Z,101831.00
2019-03-31T15:52:12.711Z,101843.00
2019-03-31T15:54:43.079Z,101842.00
2019-03-31T15:57:13.462Z,101838.00
2019-03-31T15:59:53.839Z,101846.00
2019-03-31T16:02:25.864Z,101851.00
2019-03-31T16:04:56.249Z,101845.00
2019-03-31T16:07:26.641Z,101851.00
2019-03-31T16:09:57.005Z,101849.00
2019-03-31T16:12:27.404Z,101857.00
2019-03-31T16:14:57.764Z,101858.00
2019-03-31T16:17:28.154Z,101857.00
2019-03-31T16:19:58.510Z,101851.00
2019-03-31T16:22:28.916Z,101850.00
2019-03-31T16:25:00.918Z,101853.00
2019-03-31T16:27:31.857Z,101870.00
2019-03-31T16:30:02.282Z,101864.00
2019-03-31T16:32:32.880Z,101877.00
2019-03-31T16:35:03.740Z,101870.00
2019-03-31T16:37:34.703Z,101863.00
2019-03-31T16:40:07.854Z,101865.00
2019-03-31T16:42:38.517Z,101870.00
2019-03-31T16:45:09.066Z,101869.00
2019-03-31T16:47:39.990Z,101863.00
2019-03-31T16:50:11.323Z,101871.00
2019-03-31T16:52:54.076Z,101879.00
2019-03-31T16:55:24.724Z,101875.00
2019-03-31T16:57:55.615Z,101872.00
2019-03-31T17:00:26.151Z,101878.00
2019-03-31T17:02:57.013Z,101877.00
2019-03-31T17:05:27.707Z,101886.00
2019-03-31T17:07:58.281Z,101885.00
2019-03-31T17:10:29.191Z,101879.00
2019-03-31T17:12:59.759Z,101882.00
2019-03-31T17:15:30.246Z,101894.00
2019-03-31T17:18:01.516Z,101898.00
2019-03-31T17:20:33.738Z,101899.00
2019-03-31T17:23:04.260Z,101898.00
2019-03-31T17:25:34.802Z,101896.00
2019-03-31T17:28:05.632Z,101906.00
2019-03-31T17:30:36.193Z,101905.00
2019-03-31T17:33:06.966Z,101912.00
2019-03-31T17:35:38.869Z,101912.00
2019-03-31T17:38:09.407Z,101916.00
2019-03-31T17:40:40.046Z,101922.00
2019-03-31T17:43:10.858Z,101918.00
2019-03-31T17:45:41.419Z,101925.00
2019-03-31T17:48:12.044Z,101936.00
2019-03-31T17:50:44.128Z,101928.00
2019-03-31T17:53:14.935Z,101935.00
2019-03-31T17:55:45.353Z,101940.00
2019-03-31T17:58:16.201Z,101938.00
2019-03-31T18:00:46.605Z,101937.00
2019-03-31T18:03:17.191Z,101947.00
2019-03-31T18:05:48.857Z,101943.00
2019-03-31T18:08:19.725Z,101949.00
2019-03-31T18:10:50.211Z,101955.00
2019-03-31T18:13:21.046Z,101957.00
2019-03-31T18:15:51.712Z,101960.00
2019-03-31T18:18:22.298Z,101967.00
2019-03-31T18:20:53.073Z,101965.00
2019-03-31T18:23:23.587Z,101975.00
2019-03-31T18:25:54.005Z,101972.00
2019-03-31T18:28:24.376Z,101971.00
2019-03-31T18:30:54.730Z,101989.00
2019-03-31T18:33:25.111Z,101981.00
2019-03-31T18:35:55.709Z,101986.00
2019-03-31T18:38:26.083Z,101997.00
2019-03-31T18:40:56.440Z,102001.00
2019-03-31T18:43:26.809Z,102000.00
2019-03-31T18:45:57.349Z,102010.00
2019-03-31T18:48:27.720Z,102016.00
2019-03-31T18:50:58.159Z,102013.00
2019-03-31T18:53:32.679Z,102014.00
2019-03-31T18:56:13.501Z,102020.00
2019-03-31T18:58:45.485Z,102024.00
2019-03-31T19:01:33.799Z,102022.00
2019-03-31T19:04:12.026Z,102023.00
2019-03-31T19:06:44.031Z,102044.00
2019-03-31T19:09:22.024Z,102030.00
2019-03-31T19:12:10.616Z,102038.00
2019-03-31T19:14:45.336Z,102041.00
2019-03-31T19:17:34.642Z,102034.00
2019-03-31T19:20:19.241Z,102033.00
2019-03-31T19:22:51.237Z,102050.00
2019-03-31T19:25:32.239Z,102041.00
2019-03-31T19:28:10.422Z,102039.00
2019-03-31T19:31:00.690Z,102053.00
2019-03-31T19:33:48.909Z,102051.00
2019-03-31T19:36:20.923Z,102058.00
2019-03-31T19:39:09.474Z,102057.00
2019-03-31T19:41:41.589Z,102058.00
2019-03-31T19:44:29.906Z,102066.00
2019-03-31T19:47:01.914Z,102061.00
2019-03-31T19:49:36.855Z,102062.00
2019-03-31T19:52:18.978Z,102056.00
2019-03-31T19:54:57.088Z,102058.00
2019-03-31T19:57:35.414Z,102068.00
2019-03-31T20:00:09.950Z,102069.00
2019-03-31T20:02:45.261Z,102070.00
2019-03-31T20:05:23.501Z,102073.00
2019-03-31T20:08:01.564Z,102077.00
2019-03-31T20:10:33.622Z,102078.00
2019-03-31T20:13:06.556Z,102076.00
2019-03-31T20:15:38.573Z,102077.00
2019-03-31T20:18:27.000Z,102083.00
2019-03-31T20:21:31.862Z,102088.00
2019-03-31T20:24:10.407Z,102083.00
2019-03-31T20:26:42.851Z,102086.00
2019-03-31T20:29:14.843Z,102096.00
2019-03-31T20:31:46.863Z,102089.00
2019-03-31T20:34:27.589Z,102092.00
2019-03-31T20:37:15.800Z,102101.00
2019-03-31T20:39:56.432Z,102100.00
2019-03-31T20:42:24.190Z,102108.00
2019-03-31T20:44:54.590Z,102103.00
2019-03-31T20:47:24.977Z,102109.00
2019-03-31T20:49:55.321Z,102127.00
2019-03-31T20:52:25.735Z,102115.00
2019-03-31T20:54:56.087Z,102122.00
2019-03-31T20:57:26.471Z,102120.00
2019-03-31T20:59:56.819Z,102125.00
2019-03-31T21:02:27.194Z,102129.00
2019-03-31T21:04:57.545Z,102134.00
2019-03-31T21:07:28.885Z,102129.00
2019-03-31T21:09:59.233Z,102135.00
2019-03-31T21:12:29.636Z,102138.00
2019-03-31T21:14:59.987Z,102143.00
2019-03-31T21:17:30.382Z,102141.00
2019-03-31T21:20:00.760Z,102137.00
2019-03-31T21:22:31.115Z,102138.00
2019-03-31T21:25:01.466Z,102144.00
2019-03-31T21:27:31.853Z,102144.00
2019-03-31T21:30:02.207Z,102148.00
2019-03-31T21:32:32.576Z,102158.00
2019-03-31T21:35:03.131Z,102153.00
2019-03-31T21:37:33.488Z,102152.00
2019-03-31T21:40:05.909Z,102151.00
2019-03-31T21:42:36.265Z,102163.00
2019-03-31T21:45:07.171Z,102165.00
2019-03-31T21:47:37.516Z,102156.00
2019-03-31T21:50:09.112Z,102162.00
2019-03-31T21:52:39.459Z,102164.00
2019-03-31T21:55:09.900Z,102172.00
2019-03-31T21:57:40.255Z,102172.00
2019-03-31T22:00:12.520Z,102170.00
2019-03-31T22:02:44.476Z,102169.00
2019-03-31T22:05:14.860Z,102161.00
2019-03-31T22:07:45.205Z,102167.00
2019-03-31T22:10:15.576Z,102161.00
2019-03-31T22:12:46.016Z,102168.00
2019-03-31T22:15:16.718Z,102165.00
2019-03-31T22:17:47.220Z,102169.00
2019-03-31T22:20:17.704Z,102156.00
2019-03-31T22:22:48.064Z,102163.00
2019-03-31T22:25:18.501Z,102175.00
2019-03-31T22:27:48.791Z,102171.00
2019-03-31T22:30:19.170Z,102183.00
2019-03-31T22:32:49.515Z,102179.00
2019-03-31T22:35:19.883Z,102182.00
2019-03-31T22:37:50.238Z,102192.00
2019-03-31T22:40:20.605Z,102185.00
2019-03-31T22:42:50.952Z,102184.00
2019-03-31T22:45:21.333Z,102185.00
2019-03-31T22:47:51.690Z,102186.00
2019-03-31T22:50:22.073Z,102179.00
2019-03-31T22:52:52.428Z,102183.00
2019-03-31T22:55:22.796Z,102188.00
2019-03-31T22:57:53.150Z,102183.00
2019-03-31T23:00:25.177Z,102182.00
2019-03-31T23:02:55.520Z,102185.00
2019-03-31T23:05:25.890Z,102183.00
2019-03-31T23:07:56.249Z,102180.00
2019-03-31T23:10:26.625Z,102184.00
2019-03-31T23:12:56.975Z,102179.00
2019-03-31T23:15:27.351Z,102178.00
2019-03-31T23:17:57.700Z,102190.00
2019-03-31T23:20:28.075Z,102186.00
2019-03-31T23:22:58.432Z,102190.00
2019-03-31T23:25:28.804Z,102190.00
2019-03-31T23:27:59.153Z,102191.00
2019-03-31T23:30:29.537Z,102189.00
2019-03-31T23:32:59.884Z,102191.00
2019-03-31T23:35:30.262Z,102195.00
2019-03-31T23:38:00.613Z,102191.00
2019-03-31T23:40:30.987Z,102191.00
2019-03-31T23:43:01.336Z,102194.00
2019-03-31T23:45:32.749Z,102201.00
2019-03-31T23:48:03.102Z,102192.00
2019-03-31T23:50:33.472Z,102195.00
2019-03-31T23:53:03.845Z,102194.00
2019-03-31T23:55:34.194Z,102198.00
2019-03-31T23:58:04.635Z,102198.00
